メインページ
METAR-TAF:

METAR-TAF

空港 :

Wanaham

リフー島, ニューカレドニア

緯度: 20-46S, 経度: 167-14E, 海抜: 28m

METAR: 見つかりません

時間: 11:17 (00:17 UTC)

予報

当レポートは7時間17分前の17:00(UTC)に作成
予報は20日の 18時(UTC)から 21日の 18時(UTC)まで有効
変向風 2kt
視程10km以上
高度3500ftの雲はほとんどない
高度4000ftの雲は散在している
高度4800ftの千切れ雲あり
20日の 23時(UTC)から 21日の 01時(UTC)まで徐々に
の風 8kt
確率 30%
21日の 03時(UTC)から 21日の 06時(UTC)まで
にわか雨
21日の 06時(UTC)から 21日の 08時(UTC)まで徐々に
変向風 2kt

TAF: NWWL 201700Z 2018/2118 VRB02KT 9999 FEW035 SCT040 BKN048 BECMG 2023/2101 17008KT PROB30 2103/2106 SHRA BECMG 2106/2108 VRB02KT

4,000以上の空港の気象観測と天気予報(METAR報とTAF報)

利用可能な観測所は地図上に黄色い丸と赤い丸で示す。

丸の上にカーソルを重ねると観測所名を参照できる。

次にクリックすると気象観測と天気予報を参照できる。

マップの切り替え:黒色「×」印の緑ボタンをクリックして拡大、「-」印の緑ボタンをクリックして縮小、緑色の三角印をクリックして隣りの地図に切り替え


METAR-TAF: